Time;durP1;ratioP1;P1;durP2;ratioP2;P2;SDS_P1;SDS_P2;PMS_P1;PMS_P2;Temp;Humidity;BMP_temperature;BMP_pressure;BME280_temperature;BME280_humidity;BME280_pressure;Samples;Min_cycle;Max_cycle;Signal;HPM_P1;HPM_P2
2023/07/23 00:02:19;;;;;;;14.43;7.95;;;15.90;99.90;;;;;;4939533;29;20218;-78
2023/07/23 00:04:45;;;;;;;10.70;7.20;;;15.90;99.90;;;;;;4939774;29;20180;-79
2023/07/23 00:07:11;;;;;;;13.65;7.45;;;15.90;99.90;;;;;;4938916;29;20641;-78
2023/07/23 00:09:37;;;;;;;14.18;7.63;;;15.90;99.90;;;;;;4938885;29;20190;-78
2023/07/23 00:12:03;;;;;;;13.43;7.35;;;15.90;99.90;;;;;;4937853;29;20294;-78
2023/07/23 00:14:28;;;;;;;12.38;7.68;;;15.90;99.90;;;;;;4937801;29;20351;-83
2023/07/23 00:16:54;;;;;;;18.83;7.78;;;15.90;99.90;;;;;;4939232;29;20270;-78
2023/07/23 00:19:20;;;;;;;15.52;7.95;;;15.80;99.90;;;;;;4939305;29;20176;-78
2023/07/23 00:21:47;;;;;;;15.73;7.70;;;15.80;99.90;;;;;;4937139;29;20184;-81
2023/07/23 00:24:14;;;;;;;11.43;7.57;;;15.90;99.90;;;;;;4938997;29;20175;-78
2023/07/23 00:26:39;;;;;;;13.55;7.43;;;15.80;99.90;;;;;;4938496;29;20183;-78
2023/07/23 00:29:05;;;;;;;13.20;7.50;;;15.80;99.90;;;;;;4936606;29;20192;-77
2023/07/23 00:31:31;;;;;;;13.77;7.38;;;15.80;99.90;;;;;;4921842;29;20711;-81
2023/07/23 00:33:57;;;;;;;12.80;7.95;;;15.80;99.90;;;;;;4936867;29;20187;-77
2023/07/23 00:36:22;;;;;;;14.57;7.55;;;15.80;99.90;;;;;;4936948;29;20188;-76
2023/07/23 00:38:49;;;;;;;13.82;8.25;;;15.80;99.90;;;;;;4938112;29;20183;-76
2023/07/23 00:41:15;;;;;;;13.63;7.38;;;15.80;99.90;;;;;;4937109;29;20266;-80
2023/07/23 00:43:40;;;;;;;12.32;7.63;;;15.70;99.90;;;;;;4937059;29;20218;-78
2023/07/23 00:46:08;;;;;;;13.25;7.80;;;15.70;99.90;;;;;;4921121;29;20183;-78
2023/07/23 00:48:34;;;;;;;12.98;7.88;;;15.70;99.90;;;;;;4936998;29;20191;-81
2023/07/23 00:51:01;;;;;;;11.82;7.03;;;15.70;99.90;;;;;;4937516;29;20290;-77
2023/07/23 00:53:28;;;;;;;16.65;7.80;;;15.70;99.90;;;;;;4938044;29;20202;-77
2023/07/23 00:55:54;;;;;;;12.90;7.55;;;15.60;99.90;;;;;;4936964;29;20183;-79
2023/07/23 00:58:21;;;;;;;12.50;7.40;;;15.60;99.90;;;;;;4936844;29;20187;-77
2023/07/23 01:00:47;;;;;;;16.05;7.57;;;15.60;99.90;;;;;;4937327;29;20234;-78
2023/07/23 01:03:14;;;;;;;12.95;7.53;;;15.60;99.90;;;;;;4936498;29;20183;-78
2023/07/23 01:05:42;;;;;;;13.13;8.05;;;15.60;99.90;;;;;;4920966;29;20279;-77
2023/07/23 01:08:10;;;;;;;14.70;8.23;;;15.60;99.90;;;;;;4936544;29;20553;-79
2023/07/23 01:10:36;;;;;;;16.23;8.48;;;15.60;99.90;;;;;;4905686;29;20562;-78
2023/07/23 01:13:02;;;;;;;12.90;7.75;;;15.60;99.90;;;;;;4937748;29;20324;-81
2023/07/23 01:15:28;;;;;;;15.88;8.70;;;15.50;99.90;;;;;;4937183;29;20194;-78
2023/07/23 01:17:59;;;;;;;13.13;7.82;;;15.60;99.90;;;;;;4920543;29;20193;-79
2023/07/23 01:20:25;;;;;;;13.57;8.30;;;15.50;99.90;;;;;;4936929;29;20172;-82
2023/07/23 01:22:50;;;;;;;13.77;8.40;;;15.50;99.90;;;;;;4937018;29;20192;-77
2023/07/23 01:25:16;;;;;;;13.45;8.65;;;15.50;99.90;;;;;;4937217;29;20176;-77
2023/07/23 01:27:42;;;;;;;14.95;8.10;;;15.50;99.90;;;;;;4937202;29;20274;-77
2023/07/23 01:30:08;;;;;;;12.43;8.30;;;15.50;99.90;;;;;;4920524;29;20238;-76
2023/07/23 01:32:35;;;;;;;13.27;7.97;;;15.50;99.90;;;;;;4919657;29;20213;-77
2023/07/23 01:35:14;;;;;;;13.38;7.97;;;15.50;99.90;;;;;;4937314;29;20194;-78
2023/07/23 01:37:41;;;;;;;13.23;8.38;;;15.50;99.90;;;;;;4935992;28;20250;-78
2023/07/23 01:40:07;;;;;;;11.95;7.80;;;15.50;99.90;;;;;;4936440;29;20672;-78
2023/07/23 01:42:34;;;;;;;15.00;8.15;;;15.50;99.90;;;;;;4935600;29;20288;-82
2023/07/23 01:45:02;;;;;;;11.35;7.85;;;15.50;99.90;;;;;;4935826;29;20211;-84
2023/07/23 01:47:28;;;;;;;14.07;7.65;;;15.50;99.90;;;;;;4935525;29;20175;-78
2023/07/23 01:49:54;;;;;;;14.52;8.00;;;15.50;99.90;;;;;;4937220;29;20241;-77
2023/07/23 01:52:19;;;;;;;11.45;6.88;;;15.50;99.90;;;;;;4936930;29;20302;-78
2023/07/23 01:54:45;;;;;;;14.93;7.78;;;15.50;99.90;;;;;;4935946;29;20205;-77
2023/07/23 01:57:11;;;;;;;16.05;7.32;;;15.50;99.90;;;;;;4936890;29;20188;-78
2023/07/23 01:59:37;;;;;;;11.43;7.00;;;15.50;99.90;;;;;;4935846;29;20590;-77
2023/07/23 02:02:06;;;;;;;10.50;6.95;;;15.50;99.90;;;;;;4936267;29;20216;-76
2023/07/23 02:04:32;;;;;;;11.52;7.38;;;15.50;99.90;;;;;;4935811;29;20273;-81
2023/07/23 02:06:58;;;;;;;12.45;7.70;;;15.50;99.90;;;;;;4919366;29;20191;-77
2023/07/23 02:09:23;;;;;;;10.05;7.05;;;15.50;99.90;;;;;;4936400;29;20238;-80
2023/07/23 02:11:49;;;;;;;12.85;7.00;;;15.50;99.90;;;;;;4936060;29;20214;-76
2023/07/23 02:14:15;;;;;;;10.93;7.00;;;15.50;99.90;;;;;;4919464;29;20190;-79
2023/07/23 02:16:41;;;;;;;11.60;7.15;;;15.50;99.90;;;;;;4919756;29;20604;-77
2023/07/23 02:19:07;;;;;;;9.93;6.95;;;15.50;99.90;;;;;;4935059;29;20191;-76
2023/07/23 02:21:32;;;;;;;12.07;7.18;;;15.50;99.90;;;;;;4935631;29;20254;-78
2023/07/23 02:23:58;;;;;;;10.82;7.13;;;15.50;99.90;;;;;;4919854;29;20210;-76
2023/07/23 02:26:24;;;;;;;10.30;6.82;;;15.50;99.90;;;;;;4919516;29;20550;-77
2023/07/23 02:28:50;;;;;;;10.88;6.63;;;15.50;99.90;;;;;;4935118;29;20695;-77
2023/07/23 02:31:16;;;;;;;12.32;6.95;;;15.50;99.90;;;;;;4935940;29;20219;-77
2023/07/23 02:33:41;;;;;;;11.30;7.03;;;15.50;99.90;;;;;;4936233;29;20183;-77
2023/07/23 02:36:08;;;;;;;10.48;7.18;;;15.50;99.90;;;;;;4935164;29;20558;-77
2023/07/23 02:38:34;;;;;;;12.20;7.38;;;15.50;99.90;;;;;;4935181;29;20186;-77
2023/07/23 02:41:01;;;;;;;11.18;7.47;;;15.50;99.90;;;;;;4919193;29;20241;-76
2023/07/23 02:43:27;;;;;;;12.40;7.00;;;15.50;99.90;;;;;;4935126;28;20179;-78
2023/07/23 02:45:53;;;;;;;11.50;7.30;;;15.50;99.90;;;;;;4936080;29;20187;-77
2023/07/23 02:48:19;;;;;;;9.65;6.70;;;15.50;99.90;;;;;;4936537;29;20230;-81
2023/07/23 02:50:45;;;;;;;11.48;6.78;;;15.50;99.90;;;;;;4934624;29;20186;-80
2023/07/23 02:53:10;;;;;;;11.95;6.68;;;15.50;99.90;;;;;;4939315;29;20206;-77
2023/07/23 02:55:36;;;;;;;12.77;7.13;;;15.50;99.90;;;;;;4938994;29;20225;-78
2023/07/23 02:58:03;;;;;;;9.15;6.68;;;15.50;99.90;;;;;;4939068;29;20536;-78
2023/07/23 03:00:30;;;;;;;11.95;7.32;;;15.50;99.90;;;;;;4923085;29;20175;-78
2023/07/23 03:02:56;;;;;;;14.25;7.47;;;15.50;99.90;;;;;;4923182;29;20183;-77
2023/07/23 03:05:24;;;;;;;12.05;7.30;;;15.60;99.90;;;;;;4939878;29;20187;-77
2023/07/23 03:07:52;;;;;;;10.05;6.85;;;15.50;99.90;;;;;;4939848;29;20651;-77
2023/07/23 03:10:18;;;;;;;11.93;7.05;;;15.50;99.90;;;;;;4938230;29;20194;-79
2023/07/23 03:12:45;;;;;;;11.15;6.95;;;15.60;99.90;;;;;;4938385;29;20203;-77
2023/07/23 03:15:11;;;;;;;10.73;7.38;;;15.50;99.90;;;;;;4938545;29;20242;-79
2023/07/23 03:17:36;;;;;;;14.07;7.70;;;15.60;99.90;;;;;;4939367;29;20254;-76
2023/07/23 03:20:03;;;;;;;15.85;7.60;;;15.50;99.90;;;;;;4938499;29;20183;-77
2023/07/23 03:22:29;;;;;;;15.55;7.45;;;15.60;99.90;;;;;;4939917;29;20255;-77
2023/07/23 03:24:55;;;;;;;12.00;7.57;;;15.60;99.90;;;;;;4939701;29;20183;-77
2023/07/23 03:27:21;;;;;;;12.95;7.60;;;15.60;99.90;;;;;;4938599;29;20195;-77
2023/07/23 03:29:47;;;;;;;11.20;7.32;;;15.60;99.90;;;;;;4939080;29;20210;-78
2023/07/23 03:32:12;;;;;;;11.23;7.05;;;15.60;99.90;;;;;;4938240;29;20215;-77
2023/07/23 03:34:38;;;;;;;11.73;7.65;;;15.60;99.90;;;;;;4938252;29;20191;-78
2023/07/23 03:37:06;;;;;;;9.68;6.88;;;15.60;99.90;;;;;;4938179;29;20632;-77
2023/07/23 03:39:32;;;;;;;10.98;7.35;;;15.60;99.90;;;;;;4921809;29;20187;-78
2023/07/23 03:41:57;;;;;;;12.15;7.65;;;15.60;99.90;;;;;;4939213;29;20171;-76
2023/07/23 03:44:23;;;;;;;11.73;7.43;;;15.60;99.90;;;;;;4939860;29;20626;-81
2023/07/23 03:47:12;;;;;;;11.75;7.82;;;15.60;99.90;;;;;;4938092;29;20187;-77
2023/07/23 03:49:38;;;;;;;17.33;8.50;;;15.60;99.90;;;;;;4938585;29;20509;-77
2023/07/23 03:52:05;;;;;;;13.57;7.60;;;15.60;99.90;;;;;;4922035;29;20230;-77
2023/07/23 03:54:32;;;;;;;18.63;8.50;;;15.60;99.90;;;;;;4921951;29;20285;-80
2023/07/23 03:56:58;;;;;;;15.73;8.00;;;15.60;99.90;;;;;;4938977;29;20190;-77
2023/07/23 03:59:30;;;;;;;15.25;8.02;;;15.60;99.90;;;;;;4938808;29;20187;-79
2023/07/23 04:01:56;;;;;;;16.38;8.30;;;15.60;99.90;;;;;;4939059;29;20175;-78
2023/07/23 04:04:24;;;;;;;13.70;8.48;;;15.60;99.90;;;;;;4905193;29;20197;-78
2023/07/23 04:06:50;;;;;;;13.13;8.43;;;15.60;99.90;;;;;;4937519;29;20176;-77
2023/07/23 04:09:16;;;;;;;13.50;8.75;;;15.60;99.90;;;;;;4937561;29;20183;-77
2023/07/23 04:11:42;;;;;;;13.68;8.77;;;15.60;99.90;;;;;;4937838;29;20214;-77
2023/07/23 04:14:08;;;;;;;14.98;8.93;;;15.60;99.90;;;;;;4937914;29;20195;-77
2023/07/23 04:16:34;;;;;;;15.93;8.38;;;15.60;99.90;;;;;;4938087;29;20254;-77
2023/07/23 04:18:59;;;;;;;14.13;8.65;;;15.60;99.90;;;;;;4938104;29;20187;-76
2023/07/23 04:21:25;;;;;;;13.50;8.23;;;15.60;99.90;;;;;;4937392;29;20640;-79
2023/07/23 04:23:53;;;;;;;14.73;8.82;;;15.60;99.90;;;;;;4938812;28;20187;-78
2023/07/23 04:26:21;;;;;;;12.85;8.25;;;15.60;99.90;;;;;;4937263;29;20187;-78
2023/07/23 04:28:48;;;;;;;13.40;8.90;;;15.60;99.90;;;;;;4938286;29;20183;-79
2023/07/23 04:31:14;;;;;;;14.30;9.02;;;15.60;99.90;;;;;;4905609;29;20394;-77
2023/07/23 04:33:40;;;;;;;15.20;8.60;;;15.60;99.90;;;;;;4938513;29;20187;-77
2023/07/23 04:36:07;;;;;;;16.77;8.82;;;15.60;99.90;;;;;;4937187;29;20603;-79
2023/07/23 04:38:34;;;;;;;12.80;8.20;;;15.60;99.90;;;;;;4937075;28;20247;-77
2023/07/23 04:41:00;;;;;;;15.15;8.80;;;15.60;99.90;;;;;;4938879;29;20234;-78
2023/07/23 04:43:26;;;;;;;13.77;9.02;;;15.60;99.90;;;;;;4937930;29;20180;-79
2023/07/23 04:45:52;;;;;;;12.68;8.05;;;15.50;99.90;;;;;;4937433;29;20191;-81
2023/07/23 04:48:18;;;;;;;15.63;9.02;;;15.60;99.90;;;;;;4938187;29;20180;-77
2023/07/23 04:50:44;;;;;;;16.15;8.35;;;15.60;99.90;;;;;;4937344;29;20357;-77
2023/07/23 04:53:09;;;;;;;14.15;8.88;;;15.60;99.90;;;;;;4937839;28;20306;-79
2023/07/23 04:55:35;;;;;;;14.27;8.93;;;15.60;99.90;;;;;;4937937;29;20187;-78
2023/07/23 04:58:01;;;;;;;13.73;8.88;;;15.60;99.90;;;;;;4937562;29;20183;-78
2023/07/23 05:00:27;;;;;;;12.07;8.27;;;15.60;99.90;;;;;;4938650;29;20186;-78
2023/07/23 05:02:53;;;;;;;13.88;8.40;;;15.60;99.90;;;;;;4937117;29;20214;-77
2023/07/23 05:05:19;;;;;;;15.73;8.13;;;15.70;99.90;;;;;;4938409;29;20234;-78
2023/07/23 05:07:45;;;;;;;14.95;8.85;;;15.70;99.90;;;;;;4936725;29;20536;-79
2023/07/23 05:10:11;;;;;;;12.48;8.93;;;15.60;99.90;;;;;;4937606;29;20183;-78
2023/07/23 05:12:39;;;;;;;13.18;9.25;;;15.60;99.90;;;;;;4937439;29;20214;-78
2023/07/23 05:15:13;;;;;;;14.55;8.85;;;15.60;99.90;;;;;;4937754;29;20267;-80
2023/07/23 05:17:40;;;;;;;13.82;8.60;;;15.60;99.90;;;;;;4937602;29;20167;-79
2023/07/23 05:20:06;;;;;;;14.63;8.70;;;15.60;99.90;;;;;;4937734;29;20243;-78
2023/07/23 05:22:33;;;;;;;13.93;8.88;;;15.60;99.90;;;;;;4936620;29;20183;-79
2023/07/23 05:24:59;;;;;;;15.52;8.70;;;15.70;99.90;;;;;;4937471;29;20187;-79
2023/07/23 05:27:26;;;;;;;18.58;9.52;;;15.60;99.90;;;;;;4936498;29;20547;-79
2023/07/23 05:29:52;;;;;;;13.98;9.00;;;15.60;99.90;;;;;;4935967;29;20183;-78
2023/07/23 05:32:18;;;;;;;17.83;9.48;;;15.60;99.90;;;;;;4935913;29;20211;-77
2023/07/23 05:34:44;;;;;;;17.55;9.73;;;15.60;99.90;;;;;;4937224;29;20547;-78
2023/07/23 05:37:09;;;;;;;15.73;9.38;;;15.70;99.90;;;;;;4937298;29;20308;-79
2023/07/23 05:39:35;;;;;;;19.08;10.30;;;15.60;99.90;;;;;;4936716;29;20612;-79
2023/07/23 05:42:01;;;;;;;14.90;9.95;;;15.60;99.90;;;;;;4935519;29;20175;-82
2023/07/23 05:44:28;;;;;;;14.52;9.85;;;15.60;99.90;;;;;;4919856;29;20183;-78
2023/07/23 05:46:53;;;;;;;16.20;9.98;;;15.70;99.90;;;;;;4937123;29;20583;-78
2023/07/23 05:49:19;;;;;;;19.67;9.68;;;15.60;99.90;;;;;;4937083;29;20175;-78
2023/07/23 05:51:45;;;;;;;14.45;9.05;;;15.70;99.90;;;;;;4904112;29;20698;-82
2023/07/23 05:54:11;;;;;;;16.65;9.88;;;15.70;99.90;;;;;;4904153;29;20235;-77
2023/07/23 05:56:37;;;;;;;14.48;9.98;;;15.70;99.90;;;;;;4935810;29;20667;-80
2023/07/23 05:59:03;;;;;;;14.30;9.85;;;15.70;99.90;;;;;;4936959;29;20187;-79
2023/07/23 06:01:29;;;;;;;18.85;10.30;;;15.70;99.90;;;;;;4936810;29;20210;-80
2023/07/23 06:03:54;;;;;;;18.30;9.90;;;15.70;99.90;;;;;;4936675;29;20660;-78
2023/07/23 06:06:22;;;;;;;16.75;10.40;;;15.70;99.90;;;;;;4919787;29;20219;-79
2023/07/23 06:08:47;;;;;;;13.13;10.18;;;15.70;99.90;;;;;;4936390;29;20238;-83
2023/07/23 06:11:13;;;;;;;17.45;10.48;;;15.70;99.90;;;;;;4937902;29;20302;-78
2023/07/23 06:13:39;;;;;;;14.00;9.88;;;15.70;99.90;;;;;;4936343;29;20640;-78
2023/07/23 06:16:05;;;;;;;17.25;10.27;;;15.70;99.90;;;;;;4935828;29;20179;-79
2023/07/23 06:18:31;;;;;;;14.63;9.95;;;15.70;99.90;;;;;;4935335;29;20696;-79
2023/07/23 06:20:56;;;;;;;15.65;10.20;;;15.70;99.90;;;;;;4935117;29;20278;-78
2023/07/23 06:23:22;;;;;;;16.25;10.23;;;15.80;99.90;;;;;;4936274;29;20179;-77
2023/07/23 06:25:57;;;;;;;18.50;10.27;;;15.80;99.90;;;;;;4936714;29;20620;-77
2023/07/23 06:28:23;;;;;;;18.15;10.73;;;15.80;99.90;;;;;;4935070;29;20179;-75
2023/07/23 06:30:53;;;;;;;15.30;10.38;;;15.80;99.90;;;;;;4935059;28;20301;-79
2023/07/23 06:33:19;;;;;;;15.80;10.23;;;15.80;99.90;;;;;;4919746;29;20195;-77
2023/07/23 06:35:46;;;;;;;16.33;9.82;;;15.90;99.90;;;;;;4919647;29;20187;-78
2023/07/23 06:38:11;;;;;;;14.45;10.05;;;15.80;99.90;;;;;;4936912;29;20186;-77
2023/07/23 06:40:43;;;;;;;19.27;10.55;;;15.90;99.90;;;;;;4935297;29;20235;-77
2023/07/23 06:43:09;;;;;;;17.42;10.27;;;15.90;99.90;;;;;;4936847;29;20175;-78
2023/07/23 06:45:35;;;;;;;20.88;10.82;;;15.90;99.90;;;;;;4936646;29;20193;-77
2023/07/23 06:48:01;;;;;;;21.00;10.25;;;15.90;99.90;;;;;;4919237;29;20258;-78
2023/07/23 06:50:26;;;;;;;17.10;10.50;;;15.90;99.90;;;;;;4935300;29;20250;-82
2023/07/23 06:52:52;;;;;;;12.27;9.55;;;15.90;99.90;;;;;;4935830;29;20222;-84
2023/07/23 06:55:18;;;;;;;16.33;10.80;;;16.00;99.90;;;;;;4935781;29;20187;-79
2023/07/23 06:57:44;;;;;;;16.77;11.48;;;16.00;99.90;;;;;;4935962;29;20187;-79
2023/07/23 07:00:12;;;;;;;18.60;11.85;;;16.00;99.90;;;;;;4936714;29;20206;-81
2023/07/23 07:02:37;;;;;;;18.05;11.07;;;16.10;99.90;;;;;;4936020;29;20215;-78
2023/07/23 07:05:04;;;;;;;20.85;11.43;;;16.10;99.90;;;;;;4919341;29;20221;-77
2023/07/23 07:07:29;;;;;;;17.23;11.18;;;16.10;99.90;;;;;;4919223;29;20183;-78
2023/07/23 07:09:55;;;;;;;15.50;11.13;;;16.20;99.90;;;;;;4919036;29;20670;-79
2023/07/23 07:12:21;;;;;;;16.27;11.32;;;16.20;99.90;;;;;;4903202;29;20229;-78
2023/07/23 07:14:47;;;;;;;19.48;11.02;;;16.20;99.90;;;;;;4934465;29;20194;-79
2023/07/23 07:17:13;;;;;;;17.27;11.82;;;16.30;99.90;;;;;;4903740;29;20195;-78
2023/07/23 07:19:38;;;;;;;18.38;11.48;;;16.30;99.90;;;;;;4918867;29;20262;-78
2023/07/23 07:22:04;;;;;;;17.02;11.32;;;16.30;99.90;;;;;;4918949;29;20671;-78
2023/07/23 07:24:30;;;;;;;18.20;11.63;;;16.30;99.90;;;;;;4935714;29;20183;-77
2023/07/23 07:26:56;;;;;;;16.80;11.52;;;16.30;99.90;;;;;;4935628;29;20542;-77
2023/07/23 07:29:22;;;;;;;17.08;11.65;;;16.30;99.90;;;;;;4935043;29;20629;-77
2023/07/23 07:31:50;;;;;;;21.10;11.95;;;16.30;99.90;;;;;;4935515;29;20340;-78
2023/07/23 07:34:16;;;;;;;20.02;12.35;;;16.30;99.90;;;;;;4935988;29;20686;-78
2023/07/23 07:36:43;;;;;;;17.63;12.13;;;16.30;99.90;;;;;;4935609;29;20263;-77
2023/07/23 07:39:09;;;;;;;19.98;12.07;;;16.30;99.90;;;;;;4937692;29;20251;-78
2023/07/23 07:41:35;;;;;;;18.00;11.90;;;16.40;99.90;;;;;;4938089;29;20243;-80
2023/07/23 07:44:01;;;;;;;19.70;11.75;;;16.40;99.90;;;;;;4938039;29;20246;-79
2023/07/23 07:46:26;;;;;;;20.67;11.73;;;16.40;99.90;;;;;;4937759;29;20190;-80
2023/07/23 07:48:52;;;;;;;21.55;12.30;;;16.40;99.90;;;;;;4939234;29;20183;-82
2023/07/23 07:51:18;;;;;;;20.70;12.15;;;16.40;99.90;;;;;;4937919;29;20199;-79
2023/07/23 07:53:44;;;;;;;19.85;11.40;;;16.40;99.90;;;;;;4938886;29;20183;-81
2023/07/23 07:56:14;;;;;;;23.98;12.20;;;16.40;99.90;;;;;;4939624;29;20233;-79
2023/07/23 07:58:41;;;;;;;21.15;12.10;;;16.50;99.90;;;;;;4940138;29;20195;-79
2023/07/23 08:01:07;;;;;;;19.95;11.48;;;16.50;99.90;;;;;;4939180;29;20239;-82
2023/07/23 08:03:37;;;;;;;20.20;10.95;;;16.50;99.90;;;;;;4891726;29;20206;-90
2023/07/23 08:06:03;;;;;;;21.85;11.82;;;16.50;99.90;;;;;;4906939;29;20187;-84
2023/07/23 08:08:34;;;;;;;22.92;12.60;;;16.50;99.90;;;;;;4923207;29;20198;-80
2023/07/23 08:11:01;;;;;;;22.95;12.30;;;16.50;99.90;;;;;;4939329;29;20178;-81
2023/07/23 08:13:28;;;;;;;18.20;11.57;;;16.60;99.90;;;;;;4921855;29;20207;-80
2023/07/23 08:15:55;;;;;;;21.63;12.00;;;16.60;99.90;;;;;;4922340;29;20172;-81
2023/07/23 08:18:21;;;;;;;18.50;11.30;;;16.60;99.90;;;;;;4921614;29;20179;-80
2023/07/23 08:20:47;;;;;;;19.65;11.90;;;16.60;99.90;;;;;;4937359;29;20184;-84
2023/07/23 08:23:14;;;;;;;20.08;12.55;;;16.60;99.90;;;;;;4921652;29;20187;-83
2023/07/23 08:25:42;;;;;;;21.63;12.88;;;16.60;99.90;;;;;;4937568;29;20192;-82
2023/07/23 08:28:13;;;;;;;20.75;11.70;;;16.60;99.90;;;;;;4922142;29;20239;-83
2023/07/23 08:30:39;;;;;;;19.40;12.02;;;16.60;99.90;;;;;;4939005;29;20184;-82
2023/07/23 08:33:06;;;;;;;16.30;10.88;;;16.70;99.90;;;;;;4942877;28;20310;-82
2023/07/23 08:35:32;;;;;;;16.60;10.52;;;16.70;99.90;;;;;;4907193;29;20200;-81
2023/07/23 08:37:59;;;;;;;19.42;11.77;;;16.70;99.90;;;;;;4940169;29;20270;-80
2023/07/23 08:40:26;;;;;;;15.88;11.93;;;16.70;99.90;;;;;;4906137;29;20269;-79
2023/07/23 08:42:54;;;;;;;18.75;12.65;;;16.70;99.90;;;;;;4940588;29;20239;-81
2023/07/23 08:45:45;;;;;;;18.85;13.10;;;16.70;99.90;;;;;;4939017;28;20195;-83
2023/07/23 08:48:17;;;;;;;16.70;12.20;;;16.70;99.90;;;;;;4939253;29;20172;-84
2023/07/23 08:50:44;;;;;;;18.60;12.23;;;16.70;99.90;;;;;;4937971;29;20180;-81
2023/07/23 08:53:12;;;;;;;19.58;12.32;;;16.70;99.90;;;;;;4906041;29;20278;-82
2023/07/23 08:55:40;;;;;;;18.42;11.63;;;16.70;99.90;;;;;;4937871;28;20223;-81
2023/07/23 08:58:07;;;;;;;21.40;12.73;;;16.70;99.90;;;;;;4921322;29;20648;-81
2023/07/23 09:00:35;;;;;;;20.13;12.73;;;16.70;99.90;;;;;;4922028;29;20183;-82
2023/07/23 09:03:04;;;;;;;18.70;11.52;;;16.70;99.90;;;;;;4921409;29;20194;-82
2023/07/23 09:05:30;;;;;;;17.48;11.18;;;16.70;99.90;;;;;;4921599;29;20211;-85
2023/07/23 09:07:56;;;;;;;15.35;11.77;;;16.70;99.90;;;;;;4906349;29;20183;-86
2023/07/23 09:10:22;;;;;;;19.02;12.02;;;16.80;99.90;;;;;;4922140;29;20180;-86
2023/07/23 09:12:48;;;;;;;16.45;10.75;;;16.80;99.90;;;;;;4938328;29;20217;-83
2023/07/23 09:15:14;;;;;;;16.25;11.40;;;16.70;99.90;;;;;;4936989;29;20183;-79
2023/07/23 09:17:40;;;;;;;18.23;12.32;;;16.80;99.90;;;;;;4921352;29;20619;-80
2023/07/23 09:20:09;;;;;;;18.13;11.57;;;16.80;99.90;;;;;;4921412;29;20192;-82
2023/07/23 09:22:35;;;;;;;16.33;12.27;;;16.80;99.90;;;;;;4936407;29;20183;-82
2023/07/23 09:25:01;;;;;;;18.50;12.40;;;16.80;99.90;;;;;;4936485;28;20187;-82
2023/07/23 09:27:36;;;;;;;17.80;12.10;;;16.80;99.90;;;;;;4936158;29;20235;-80
2023/07/23 09:30:03;;;;;;;18.25;12.05;;;16.80;99.90;;;;;;4936332;29;20187;-80
2023/07/23 09:32:29;;;;;;;17.00;12.05;;;16.80;99.90;;;;;;4935487;29;20215;-81
2023/07/23 09:34:57;;;;;;;20.65;12.73;;;16.80;99.90;;;;;;4919849;29;20210;-80
2023/07/23 09:37:26;;;;;;;14.55;11.40;;;16.80;99.90;;;;;;4920493;29;20203;-81
2023/07/23 09:39:55;;;;;;;16.90;11.63;;;16.80;99.90;;;;;;4920371;29;20230;-80
2023/07/23 09:42:22;;;;;;;16.35;10.93;;;16.80;99.90;;;;;;4935948;29;20180;-81
2023/07/23 09:44:50;;;;;;;15.52;11.13;;;16.80;99.90;;;;;;4919698;29;20266;-81
2023/07/23 09:47:22;;;;;;;16.25;11.32;;;16.80;99.90;;;;;;4920917;29;20187;-82
2023/07/23 09:49:48;;;;;;;16.50;10.77;;;16.80;99.90;;;;;;4935872;29;20175;-82
2023/07/23 09:52:13;;;;;;;17.33;10.82;;;16.80;99.90;;;;;;4920856;29;20203;-83
2023/07/23 09:54:40;;;;;;;15.02;10.40;;;16.80;99.90;;;;;;4920543;29;20191;-80
2023/07/23 09:57:07;;;;;;;19.13;10.50;;;16.80;99.90;;;;;;4935922;28;20190;-81
2023/07/23 09:59:33;;;;;;;17.00;11.40;;;16.80;99.90;;;;;;4920214;29;20710;-80
2023/07/23 10:02:00;;;;;;;16.42;11.85;;;16.80;99.90;;;;;;4935127;29;20636;-82
2023/07/23 10:04:28;;;;;;;17.08;11.32;;;16.90;99.90;;;;;;4920560;29;20184;-80
2023/07/23 10:06:55;;;;;;;17.27;10.85;;;16.90;99.90;;;;;;4920167;29;20195;-83
2023/07/23 10:09:23;;;;;;;15.73;10.98;;;16.90;99.90;;;;;;4935312;29;20191;-82
2023/07/23 10:11:48;;;;;;;19.15;10.75;;;16.90;99.90;;;;;;4919530;29;20222;-81
2023/07/23 10:14:15;;;;;;;18.17;11.35;;;16.90;99.90;;;;;;4919716;29;20187;-83
2023/07/23 10:16:43;;;;;;;16.90;11.35;;;16.90;99.90;;;;;;4935954;29;20706;-83
2023/07/23 10:19:10;;;;;;;16.40;10.18;;;16.90;99.90;;;;;;4936822;29;20180;-80
2023/07/23 10:21:36;;;;;;;15.63;10.93;;;16.90;99.90;;;;;;4919625;29;20273;-86
2023/07/23 10:24:04;;;;;;;17.35;11.27;;;16.90;99.90;;;;;;4919517;29;20203;-83
2023/07/23 10:26:38;;;;;;;20.17;11.25;;;16.90;99.90;;;;;;4919503;29;20290;-81
2023/07/23 10:29:18;;;;;;;14.10;10.52;;;16.90;99.90;;;;;;4935700;29;20185;-80
2023/07/23 10:31:45;;;;;;;18.25;11.55;;;16.90;99.90;;;;;;4919952;29;20313;-81
2023/07/23 10:34:23;;;;;;;17.27;10.93;;;16.90;99.90;;;;;;4919060;29;20235;-82
2023/07/23 10:37:12;;;;;;;16.27;10.82;;;16.90;99.90;;;;;;4935156;28;20642;-83
2023/07/23 10:39:49;;;;;;;17.42;11.20;;;16.90;99.90;;;;;;4919873;29;20183;-82
2023/07/23 10:42:37;;;;;;;18.33;10.88;;;16.90;99.90;;;;;;4919413;29;20179;-84
2023/07/23 10:45:21;;;;;;;16.20;11.38;;;16.90;99.90;;;;;;4920225;29;20190;-82
2023/07/23 10:47:48;;;;;;;16.08;11.23;;;16.90;99.90;;;;;;4935795;28;20242;-82
2023/07/23 10:50:15;;;;;;;18.33;10.75;;;16.90;99.90;;;;;;4937106;29;20182;-81
2023/07/23 10:52:49;;;;;;;17.80;10.57;;;17.00;99.90;;;;;;4919696;29;20210;-82
2023/07/23 10:55:47;;;;;;;15.40;10.80;;;17.00;99.90;;;;;;4936599;29;20266;-82
2023/07/23 10:58:18;;;;;;;15.20;10.48;;;17.00;99.90;;;;;;4919617;29;20178;-81
2023/07/23 11:00:47;;;;;;;16.30;10.73;;;17.00;99.90;;;;;;4919671;29;20235;-83
2023/07/23 11:03:16;;;;;;;15.10;10.05;;;17.10;99.90;;;;;;4919793;29;20179;-80
2023/07/23 11:05:43;;;;;;;14.60;10.60;;;17.10;99.90;;;;;;4919889;29;20183;-81
2023/07/23 11:08:15;;;;;;;15.20;10.52;;;17.10;99.90;;;;;;4919262;29;20553;-81
2023/07/23 11:10:58;;;;;;;22.52;10.70;;;17.10;99.90;;;;;;4919316;29;20305;-82
2023/07/23 11:13:26;;;;;;;16.10;9.93;;;17.20;99.90;;;;;;4919988;29;20278;-80
2023/07/23 11:15:51;;;;;;;15.57;10.10;;;17.20;99.90;;;;;;4923416;29;20576;-78
2023/07/23 11:18:20;;;;;;;14.02;9.57;;;17.20;99.90;;;;;;4938624;28;20194;-81
2023/07/23 11:20:47;;;;;;;19.33;10.75;;;17.20;99.90;;;;;;4940862;29;20218;-80
2023/07/23 11:23:14;;;;;;;15.55;10.18;;;17.20;99.90;;;;;;4941312;29;20195;-81
2023/07/23 11:25:40;;;;;;;15.40;10.90;;;17.20;99.90;;;;;;4938830;29;20184;-81
2023/07/23 11:28:07;;;;;;;15.95;10.15;;;17.20;99.90;;;;;;4922334;29;20198;-81
2023/07/23 11:30:33;;;;;;;17.50;10.57;;;17.30;99.90;;;;;;4907203;29;20184;-81
2023/07/23 11:33:01;;;;;;;18.92;9.98;;;17.30;99.90;;;;;;4938530;28;20218;-80
2023/07/23 11:35:27;;;;;;;15.32;10.57;;;17.30;99.90;;;;;;4939820;29;20183;-82
2023/07/23 11:37:53;;;;;;;18.80;10.82;;;17.40;99.90;;;;;;4938057;29;20175;-82
2023/07/23 11:40:23;;;;;;;15.88;9.95;;;17.30;99.90;;;;;;4938525;29;20294;-87
2023/07/23 11:42:51;;;;;;;18.02;10.57;;;17.30;99.90;;;;;;4939974;29;20303;-80
2023/07/23 11:45:17;;;;;;;16.33;10.85;;;17.40;99.90;;;;;;4939248;29;20243;-81
2023/07/23 11:47:53;;;;;;;14.98;10.35;;;17.40;99.90;;;;;;4907292;29;20299;-81
2023/07/23 11:50:24;;;;;;;18.52;10.65;;;17.40;99.90;;;;;;4938188;29;20222;-82
2023/07/23 11:52:51;;;;;;;13.75;9.40;;;17.40;99.90;;;;;;4938006;29;20222;-80
2023/07/23 11:55:21;;;;;;;14.48;10.13;;;17.40;99.90;;;;;;4938249;29;20195;-81
2023/07/23 11:57:56;;;;;;;18.13;10.20;;;17.40;99.90;;;;;;4938289;29;20180;-80
2023/07/23 12:00:30;;;;;;;17.67;9.65;;;17.40;99.90;;;;;;4938365;29;20182;-81
2023/07/23 12:02:59;;;;;;;14.05;9.35;;;17.40;99.90;;;;;;4938477;28;20179;-81
2023/07/23 12:05:25;;;;;;;14.48;10.00;;;17.40;99.90;;;;;;4906515;29;20191;-81
2023/07/23 12:07:52;;;;;;;14.07;9.68;;;17.40;99.90;;;;;;4939201;29;20282;-81
2023/07/23 12:10:18;;;;;;;13.75;9.18;;;17.40;99.90;;;;;;4922153;29;20180;-82
2023/07/23 12:12:48;;;;;;;15.23;10.00;;;17.40;99.90;;;;;;4921916;29;20218;-81
2023/07/23 12:15:15;;;;;;;13.55;9.18;;;17.40;99.90;;;;;;4937581;29;20258;-81
2023/07/23 12:17:41;;;;;;;19.05;9.40;;;17.40;99.90;;;;;;4938470;29;20640;-81
2023/07/23 12:20:09;;;;;;;13.98;9.15;;;17.40;99.90;;;;;;4938022;29;20677;-84
2023/07/23 12:22:48;;;;;;;12.95;8.75;;;17.40;99.90;;;;;;4921873;29;20192;-80
2023/07/23 12:25:14;;;;;;;14.80;8.90;;;17.40;99.90;;;;;;5102628;23;20265;-86
2023/07/23 12:27:42;;;;;;;11.10;8.75;;;17.40;99.90;;;;;;4913848;29;20180;-84
2023/07/23 12:30:12;;;;;;;13.23;9.18;;;17.40;99.90;;;;;;4909354;29;20614;-84
2023/07/23 12:32:38;;;;;;;11.30;8.15;;;17.40;99.90;;;;;;4917259;29;20218;-85
2023/07/23 12:35:04;;;;;;;13.73;9.23;;;17.50;99.90;;;;;;4930187;29;20274;-85